Time;durP1;ratioP1;P1;durP2;ratioP2;P2;SDS_P1;SDS_P2;PMS_P1;PMS_P2;Temp;Humidity;BMP_temperature;BMP_pressure;BME280_temperature;BME280_humidity;BME280_pressure;Samples;Min_cycle;Max_cycle;Signal;HPM_P1;HPM_P2
2022/10/03 00:00:38;;;;;;;13.68;2.15;;;;;;;9.68;100.00;102681.84;5047193;28;20116;-64
2022/10/03 00:03:10;;;;;;;10.27;2.33;;;;;;;9.69;100.00;102681.84;5013268;28;20057;-63
2022/10/03 00:05:57;;;;;;;15.30;1.95;;;;;;;9.58;100.00;102676.56;5047500;28;20029;-65
2022/10/03 00:08:56;;;;;;;11.20;2.25;;;;;;;9.54;100.00;102685.34;5049010;28;20040;-63
2022/10/03 00:11:25;;;;;;;16.10;2.58;;;;;;;9.55;100.00;102687.13;5038993;28;20025;-64
2022/10/03 00:14:02;;;;;;;14.60;2.00;;;;;;;9.59;100.00;102688.00;5030533;28;20026;-65
2022/10/03 00:16:39;;;;;;;17.95;2.08;;;;;;;9.59;100.00;102691.53;5031949;28;20091;-64
2022/10/03 00:19:36;;;;;;;9.85;2.25;;;;;;;9.63;100.00;102697.63;5015132;28;20018;-66
2022/10/03 00:22:43;;;;;;;15.05;2.17;;;;;;;9.60;100.00;102693.25;5032126;28;20038;-64
2022/10/03 00:25:35;;;;;;;13.95;2.30;;;;;;;9.61;100.00;102696.78;5024628;28;20403;-65
2022/10/03 00:28:03;;;;;;;15.60;2.85;;;;;;;9.65;100.00;102698.53;5048077;28;20040;-65
2022/10/03 00:30:54;;;;;;;14.88;2.85;;;;;;;9.65;100.00;102697.66;5032576;28;20079;-64
2022/10/03 00:33:31;;;;;;;13.63;2.60;;;;;;;9.60;100.00;102697.63;5034420;28;20028;-66
2022/10/03 00:36:08;;;;;;;12.00;3.17;;;;;;;9.60;100.00;102695.91;5051891;28;20033;-67
2022/10/03 00:39:01;;;;;;;10.77;2.88;;;;;;;9.55;100.00;102700.28;5052075;28;20024;-68
2022/10/03 00:41:42;;;;;;;12.63;2.83;;;;;;;9.53;100.00;102709.03;5034088;28;20033;-65
2022/10/03 00:44:39;;;;;;;13.02;3.60;;;;;;;9.50;100.00;102717.81;5051261;28;20565;-64
2022/10/03 00:47:26;;;;;;;12.25;3.53;;;;;;;9.54;100.00;102713.47;5035201;28;20024;-65
2022/10/03 00:50:22;;;;;;;11.20;3.28;;;;;;;9.60;100.00;102722.22;5050765;28;20174;-63
2022/10/03 00:53:06;;;;;;;16.25;3.08;;;;;;;9.64;100.00;102719.59;5034296;28;20044;-64
2022/10/03 00:55:34;;;;;;;14.00;3.10;;;;;;;9.67;100.00;102725.75;5051933;28;20116;-65
2022/10/03 00:58:26;;;;;;;16.35;3.40;;;;;;;9.70;100.00;102736.25;5050949;28;20037;-64
2022/10/03 01:00:57;;;;;;;14.38;2.85;;;;;;;9.75;100.00;102736.25;5027233;28;20411;-65
2022/10/03 01:03:35;;;;;;;17.48;2.83;;;;;;;9.78;100.00;102736.25;5033053;28;20028;-64
2022/10/03 01:09:10;;;;;;;9.98;2.30;;;;;;;9.80;100.00;102741.53;5069790;23;20057;-65
2022/10/03 01:12:02;;;;;;;11.48;2.35;;;;;;;9.80;100.00;102742.41;5069967;28;20033;-64
2022/10/03 01:14:45;;;;;;;16.63;3.55;;;;;;;9.73;100.00;102735.38;5067175;28;20044;-67
2022/10/03 01:17:27;;;;;;;10.32;2.47;;;;;;;9.68;100.00;102742.41;5068968;28;20047;-65
2022/10/03 01:20:28;;;;;;;8.05;1.83;;;;;;;9.68;100.00;102743.28;5066264;28;20036;-64
2022/10/03 01:22:56;;;;;;;16.90;2.85;;;;;;;9.72;100.00;102744.16;5069187;28;20033;-65
2022/10/03 01:25:24;;;;;;;13.65;2.17;;;;;;;9.76;100.00;102738.03;5069347;28;20028;-65
2022/10/03 01:31:07;;;;;;;14.55;2.17;;;;;;;9.84;100.00;102733.63;5068663;28;20097;-64
2022/10/03 01:33:46;;;;;;;11.73;1.83;;;;;;;9.90;100.00;102729.25;5068993;28;20430;-66
2022/10/03 01:36:23;;;;;;;11.70;2.40;;;;;;;9.90;100.00;102731.88;5069266;28;20112;-64
2022/10/03 01:39:00;;;;;;;10.88;2.15;;;;;;;9.86;100.00;102726.63;5068237;28;20062;-64
2022/10/03 01:41:47;;;;;;;10.18;2.28;;;;;;;9.79;100.00;102734.50;5068264;28;20032;-64
2022/10/03 01:44:23;;;;;;;9.63;2.28;;;;;;;9.70;100.00;102736.25;5068854;28;20028;-65
2022/10/03 01:46:57;;;;;;;11.48;2.25;;;;;;;9.59;100.00;102738.91;5068559;28;20020;-66
2022/10/03 01:49:26;;;;;;;13.13;2.17;;;;;;;9.54;100.00;102742.41;5067478;28;20098;-66
2022/10/03 01:51:59;;;;;;;15.15;3.40;;;;;;;9.51;100.00;102738.00;5069038;28;20462;-64
2022/10/03 01:54:46;;;;;;;12.80;2.00;;;;;;;9.51;100.00;102753.78;5082816;28;20056;-65
2022/10/03 01:57:16;;;;;;;7.57;1.83;;;;;;;9.52;100.00;102752.94;5067558;28;20070;-64
2022/10/03 01:59:49;;;;;;;8.45;1.77;;;;;;;9.50;100.00;102751.16;5066407;28;20045;-66
2022/10/03 02:02:40;;;;;;;11.35;1.85;;;;;;;9.40;100.00;102747.63;5067227;28;20017;-63
2022/10/03 02:05:07;;;;;;;9.27;1.88;;;;;;;9.42;100.00;102753.78;5068181;28;20067;-64
2022/10/03 02:07:40;;;;;;;8.40;1.52;;;;;;;9.44;100.00;102750.28;5068293;28;20056;-65
2022/10/03 02:10:21;;;;;;;10.88;1.90;;;;;;;9.44;100.00;102757.28;5067368;28;20021;-65
2022/10/03 02:13:02;;;;;;;14.48;2.35;;;;;;;9.42;100.00;102752.00;5067565;28;20056;-64
2022/10/03 02:15:53;;;;;;;7.22;2.13;;;;;;;9.46;100.00;102758.16;5065365;28;20037;-64
2022/10/03 02:18:48;;;;;;;12.75;2.10;;;;;;;9.50;100.00;102754.66;5040171;28;20063;-63
2022/10/03 02:21:19;;;;;;;4.57;1.67;;;;;;;9.51;100.00;102756.41;5084048;28;20107;-66
2022/10/03 02:23:45;;;;;;;7.68;2.00;;;;;;;9.50;100.00;102753.78;5067212;28;20082;-65
2022/10/03 02:26:47;;;;;;;10.70;2.55;;;;;;;9.44;100.00;102750.28;5065502;28;20028;-64
2022/10/03 02:29:21;;;;;;;13.05;2.30;;;;;;;9.37;100.00;102750.25;5046938;28;20025;-64
2022/10/03 02:32:20;;;;;;;7.78;1.40;;;;;;;9.39;100.00;102745.88;5046738;28;20040;-67
2022/10/03 02:34:48;;;;;;;8.80;1.85;;;;;;;9.33;100.00;102747.63;5052541;28;20031;-64
2022/10/03 02:37:45;;;;;;;12.07;1.65;;;;;;;9.30;100.00;102737.09;5064400;28;20056;-65
2022/10/03 02:40:19;;;;;;;8.63;1.67;;;;;;;9.22;100.00;102739.69;5066881;28;20032;-64
2022/10/03 02:43:06;;;;;;;11.13;1.98;;;;;;;9.17;100.00;102744.06;5067635;28;20024;-64
2022/10/03 02:45:46;;;;;;;12.48;2.28;;;;;;;9.10;100.00;102739.69;5067669;28;20034;-64
2022/10/03 02:48:12;;;;;;;11.30;1.80;;;;;;;9.03;100.00;102741.41;5066896;28;20054;-64
2022/10/03 02:50:43;;;;;;;8.65;1.70;;;;;;;8.97;100.00;102749.25;5066961;28;20550;-65
2022/10/03 02:53:24;;;;;;;14.23;2.15;;;;;;;8.95;100.00;102751.03;5067320;28;20116;-66
2022/10/03 02:56:25;;;;;;;8.63;1.92;;;;;;;8.85;100.00;102753.59;5050114;28;20035;-65
2022/10/03 02:59:21;;;;;;;8.38;1.85;;;;;;;8.76;100.00;102758.81;5064268;28;20045;-64
2022/10/03 03:01:54;;;;;;;11.15;1.83;;;;;;;8.71;100.00;102756.19;5067563;28;20174;-65
2022/10/03 03:04:47;;;;;;;10.38;2.20;;;;;;;8.76;100.00;102760.59;5068147;28;20040;-64
2022/10/03 03:07:37;;;;;;;8.07;1.45;;;;;;;8.78;100.00;102754.47;5067820;28;20045;-65
2022/10/03 03:10:32;;;;;;;6.95;1.70;;;;;;;8.77;100.00;102752.72;5066030;28;20496;-62
2022/10/03 03:13:21;;;;;;;7.97;1.95;;;;;;;8.72;100.00;102754.41;5083057;28;20051;-64
2022/10/03 03:16:11;;;;;;;6.00;1.50;;;;;;;8.65;100.00;102757.91;5066687;28;20463;-65
2022/10/03 03:18:52;;;;;;;10.25;1.83;;;;;;;8.62;100.00;102764.03;5066982;28;20024;-65
2022/10/03 03:21:33;;;;;;;8.13;2.13;;;;;;;8.58;100.00;102755.22;5067594;28;20036;-63
2022/10/03 03:23:58;;;;;;;9.52;1.98;;;;;;;8.60;100.00;102760.50;5067478;28;20123;-65
2022/10/03 03:26:40;;;;;;;10.70;1.95;;;;;;;8.62;100.00;102755.25;5067305;28;20108;-65
2022/10/03 03:29:17;;;;;;;13.20;1.70;;;;;;;8.62;100.00;102755.25;5067137;28;20025;-64
2022/10/03 03:31:45;;;;;;;9.32;2.40;;;;;;;8.58;100.00;102757.84;5066285;28;20028;-64
2022/10/03 03:34:41;;;;;;;8.00;1.80;;;;;;;8.61;100.00;102756.13;5066029;28;20024;-66
2022/10/03 03:37:33;;;;;;;8.98;1.80;;;;;;;8.58;100.00;102762.25;5064821;28;20070;-64
2022/10/03 03:39:58;;;;;;;11.27;2.10;;;;;;;8.55;100.00;102760.47;5083334;28;20513;-65
2022/10/03 03:42:48;;;;;;;8.30;1.77;;;;;;;8.56;100.00;102763.97;5066497;28;20025;-65
2022/10/03 03:45:39;;;;;;;8.13;2.15;;;;;;;8.58;100.00;102762.25;5071039;28;20372;-63
2022/10/03 03:48:37;;;;;;;16.00;2.10;;;;;;;8.54;100.00;102765.72;5087097;28;20028;-67
2022/10/03 03:51:13;;;;;;;7.85;1.70;;;;;;;8.50;100.00;102763.91;5070691;28;20115;-65
2022/10/03 03:54:02;;;;;;;9.45;2.13;;;;;;;8.44;100.00;102773.53;5069967;28;20423;-65
2022/10/03 03:57:00;;;;;;;9.40;2.13;;;;;;;8.42;100.00;102771.75;5069744;28;20028;-65
2022/10/03 03:59:36;;;;;;;9.88;1.75;;;;;;;8.44;100.00;102765.66;5070209;28;20033;-65
2022/10/03 04:02:14;;;;;;;9.80;2.20;;;;;;;8.45;100.00;102767.41;5064166;28;20386;-64
2022/10/03 04:04:44;;;;;;;5.97;1.90;;;;;;;8.53;100.00;102775.34;5069625;28;20029;-63
2022/10/03 04:07:24;;;;;;;10.15;1.85;;;;;;;8.57;100.00;102770.97;5070010;28;20045;-66
2022/10/03 04:10:08;;;;;;;11.82;2.35;;;;;;;8.62;100.00;102771.00;5069424;28;20067;-65
2022/10/03 04:12:45;;;;;;;13.27;2.72;;;;;;;8.65;100.00;102771.03;5069688;28;20044;-65
2022/10/03 04:15:32;;;;;;;13.57;2.22;;;;;;;8.70;100.00;102770.19;5068617;28;20112;-65
2022/10/03 04:21:24;;;;;;;10.80;2.15;;;;;;;8.93;100.00;102776.41;5069527;28;20040;-64
2022/10/03 04:24:07;;;;;;;14.23;3.30;;;;;;;9.02;100.00;102778.19;5052779;28;20025;-66
2022/10/03 04:26:42;;;;;;;13.05;2.67;;;;;;;9.05;100.00;102776.47;5068528;28;20039;-64
2022/10/03 04:29:41;;;;;;;18.00;2.92;;;;;;;9.07;100.00;102777.38;5064701;28;20037;-61
2022/10/03 04:32:13;;;;;;;8.40;1.83;;;;;;;9.09;100.00;102777.34;5063001;28;20048;-65
2022/10/03 04:35:18;;;;;;;9.98;2.60;;;;;;;9.09;100.00;102782.59;5069520;28;20712;-62
2022/10/03 04:37:48;;;;;;;10.73;2.13;;;;;;;9.11;100.00;102786.13;5063845;28;20056;-66
2022/10/03 04:40:23;;;;;;;11.68;2.42;;;;;;;9.08;100.00;102794.00;5070758;28;20028;-64
2022/10/03 04:43:01;;;;;;;6.60;2.25;;;;;;;9.05;100.00;102789.63;5070501;28;20124;-65
2022/10/03 04:45:39;;;;;;;10.40;2.28;;;;;;;9.04;100.00;102787.88;5066193;28;20035;-65
2022/10/03 04:48:17;;;;;;;10.05;2.45;;;;;;;9.03;100.00;102786.09;5068400;28;20013;-66
2022/10/03 04:51:06;;;;;;;10.50;2.40;;;;;;;9.00;100.00;102786.09;5070015;28;20120;-65
2022/10/03 04:54:06;;;;;;;13.85;2.17;;;;;;;8.96;100.00;102785.22;5069153;28;20033;-64
2022/10/03 04:57:09;;;;;;;7.97;1.92;;;;;;;8.92;100.00;102783.44;5065406;28;20036;-66
2022/10/03 04:59:52;;;;;;;12.90;2.13;;;;;;;8.96;100.00;102784.31;5068497;28;20029;-64
2022/10/03 05:02:24;;;;;;;6.07;1.75;;;;;;;9.02;100.00;102789.59;5066917;28;20027;-62
2022/10/03 05:04:59;;;;;;;13.18;2.40;;;;;;;9.13;100.00;102794.03;5068163;28;20466;-66
2022/10/03 05:08:01;;;;;;;13.93;2.28;;;;;;;9.22;100.00;102796.69;5057541;28;20052;-65
2022/10/03 05:10:43;;;;;;;17.02;2.60;;;;;;;9.30;100.00;102788.84;5068285;28;20028;-64
2022/10/03 05:13:11;;;;;;;10.05;2.28;;;;;;;9.32;100.00;102790.59;5066815;28;20100;-64
2022/10/03 05:15:57;;;;;;;13.27;2.65;;;;;;;9.41;100.00;102792.38;5056526;28;20374;-65
2022/10/03 05:18:34;;;;;;;9.35;2.67;;;;;;;9.46;100.00;102802.91;5056613;28;20467;-63
2022/10/03 05:21:15;;;;;;;9.50;2.30;;;;;;;9.55;100.00;102802.03;5065113;28;20044;-64
2022/10/03 05:24:02;;;;;;;10.02;2.50;;;;;;;9.58;100.00;102800.28;5067162;28;20036;-63
2022/10/03 05:26:38;;;;;;;12.93;2.50;;;;;;;9.63;100.00;102794.16;5083957;28;20081;-66
2022/10/03 05:29:14;;;;;;;9.75;2.33;;;;;;;9.64;100.00;102796.81;5068067;28;20037;-64
2022/10/03 05:31:52;;;;;;;9.13;2.17;;;;;;;9.72;100.00;102796.78;5068216;28;20109;-65
2022/10/03 05:34:31;;;;;;;8.15;2.42;;;;;;;9.85;100.00;102795.94;5068125;28;20051;-64
2022/10/03 05:37:00;;;;;;;12.55;2.38;;;;;;;9.94;100.00;102802.09;5067975;28;20033;-65
2022/10/03 05:39:41;;;;;;;9.77;2.43;;;;;;;10.02;100.00;102794.19;5055709;28;20029;-66
2022/10/03 05:42:23;;;;;;;11.05;2.67;;;;;;;10.07;100.00;102797.69;5047113;28;20058;-65
2022/10/03 05:44:58;;;;;;;12.38;2.25;;;;;;;10.12;100.00;102798.59;5046327;28;20021;-66
2022/10/03 05:47:47;;;;;;;9.90;2.92;;;;;;;10.20;100.00;102795.91;5064140;28;20029;-65
2022/10/03 05:50:26;;;;;;;11.25;2.50;;;;;;;10.31;100.00;102796.81;5066477;28;20732;-66
2022/10/03 05:53:10;;;;;;;10.23;2.88;;;;;;;10.38;100.00;102794.16;5067580;28;20028;-64
2022/10/03 05:56:00;;;;;;;8.70;2.38;;;;;;;10.46;100.00;102795.06;5068187;28;20086;-66
2022/10/03 05:58:37;;;;;;;9.90;2.40;;;;;;;10.51;100.00;102798.56;5065891;28;20027;-63
2022/10/03 06:01:24;;;;;;;12.57;2.50;;;;;;;10.59;100.00;102801.16;5063491;28;20036;-64
2022/10/03 06:04:07;;;;;;;15.70;2.45;;;;;;;10.69;100.00;102804.69;5057762;28;20063;-63
2022/10/03 06:07:06;;;;;;;10.55;2.35;;;;;;;10.74;100.00;102808.16;5059514;28;20078;-64
2022/10/03 06:09:53;;;;;;;14.05;2.70;;;;;;;10.80;100.00;102808.16;5050594;28;20040;-66
2022/10/03 06:12:33;;;;;;;11.00;2.40;;;;;;;10.93;100.00;102802.84;5047168;28;20047;-65
2022/10/03 06:15:24;;;;;;;17.92;2.70;;;;;;;11.04;100.00;102803.66;5028183;28;20040;-63
2022/10/03 06:18:21;;;;;;;9.40;2.10;;;;;;;11.08;100.00;102805.41;5047286;28;20096;-63
2022/10/03 06:21:14;;;;;;;12.82;2.60;;;;;;;11.14;100.00;102799.25;5075694;28;20448;-63
2022/10/03 06:23:51;;;;;;;11.50;2.40;;;;;;;11.19;100.00;102809.75;5066640;28;20028;-63
2022/10/03 06:26:34;;;;;;;11.77;2.60;;;;;;;11.21;100.00;102800.97;5059515;28;20040;-63
2022/10/03 06:29:25;;;;;;;16.17;2.40;;;;;;;11.29;100.00;102805.31;5066353;28;20032;-61
2022/10/03 06:32:09;;;;;;;10.57;2.53;;;;;;;11.31;100.00;102812.34;5061980;28;20070;-62
2022/10/03 06:35:12;;;;;;;12.98;2.67;;;;;;;11.36;100.00;102805.28;5064470;28;20042;-63
2022/10/03 06:38:01;;;;;;;11.05;2.47;;;;;;;11.36;100.00;102821.13;5061146;28;20710;-63
2022/10/03 06:41:12;;;;;;;13.18;2.92;;;;;;;11.32;100.00;102819.34;5065425;28;20490;-62
2022/10/03 06:43:52;;;;;;;11.05;2.53;;;;;;;11.31;100.00;102828.16;5054879;28;20406;-63
2022/10/03 06:46:44;;;;;;;7.65;2.45;;;;;;;11.32;100.00;102815.88;5064593;28;20112;-65
2022/10/03 06:49:40;;;;;;;9.63;2.55;;;;;;;11.38;100.00;102823.75;5064366;28;20023;-65
2022/10/03 06:52:11;;;;;;;12.38;3.13;;;;;;;11.46;100.00;102826.31;5060425;28;20057;-63
2022/10/03 06:54:37;;;;;;;15.15;3.13;;;;;;;11.52;100.00;102823.66;5065891;28;20398;-63
2022/10/03 06:57:14;;;;;;;12.27;3.22;;;;;;;11.70;100.00;102830.59;5065884;28;20020;-62
2022/10/03 06:59:55;;;;;;;17.63;7.35;;;;;;;11.83;100.00;102826.09;5065333;28;20021;-63
2022/10/03 07:02:39;;;;;;;13.63;3.10;;;;;;;11.98;100.00;102834.81;5057312;28;20480;-64
2022/10/03 07:05:41;;;;;;;13.25;4.30;;;;;;;12.10;100.00;102836.50;5059631;28;20028;-63
2022/10/03 07:08:25;;;;;;;16.15;2.97;;;;;;;12.24;100.00;102836.38;5062571;28;20041;-63
2022/10/03 07:10:59;;;;;;;15.52;3.25;;;;;;;12.44;100.00;102835.31;5065981;28;20047;-63
2022/10/03 07:13:38;;;;;;;10.85;2.95;;;;;;;12.56;100.00;102845.78;5062470;28;20016;-62
2022/10/03 07:16:18;;;;;;;18.80;3.25;;;;;;;12.63;100.00;102847.47;5064879;28;20025;-63
2022/10/03 07:19:08;;;;;;;18.40;2.90;;;;;;;12.67;100.00;102855.38;5061076;28;20124;-62
2022/10/03 07:22:12;;;;;;;15.77;3.25;;;;;;;12.74;100.00;102847.31;5063711;28;20404;-63
2022/10/03 07:25:14;;;;;;;19.40;2.90;;;;;;;12.82;100.00;102849.03;5057884;28;20048;-62
2022/10/03 07:27:56;;;;;;;15.68;3.05;;;;;;;12.90;100.00;102849.81;5056554;28;20025;-62
2022/10/03 07:30:22;;;;;;;14.68;3.05;;;;;;;12.95;100.00;102849.75;5052723;28;20025;-63
2022/10/03 07:32:56;;;;;;;10.35;2.83;;;;;;;12.94;100.00;102845.38;5056363;28;20028;-64
2022/10/03 07:41:02;;;;;;;16.58;3.35;;;;;;;13.07;100.00;102844.34;5055563;28;20035;-61
2022/10/03 07:44:00;;;;;;;18.80;3.38;;;;;;;13.09;100.00;102855.75;5056391;28;20336;-61
2022/10/03 07:46:29;;;;;;;;;;;;;;;13.10;100.00;102859.28;5057798;28;20032;-63
2022/10/03 07:49:13;;;;;;;14.55;2.88;;;;;;;13.22;100.00;102852.97;5063800;28;19923;-62
2022/10/03 07:52:21;;;;;;;19.48;3.85;;;;;;;13.31;100.00;102852.88;5063430;28;20036;-63
2022/10/03 07:55:14;;;;;;;11.95;2.60;;;;;;;13.39;100.00;102853.63;5066484;28;20193;-64
2022/10/03 07:57:49;;;;;;;13.18;3.05;;;;;;;13.54;100.00;102854.34;5063027;28;20044;-64
2022/10/03 08:00:21;;;;;;;8.38;3.00;;;;;;;13.68;100.00;102855.91;5052187;28;20033;-64
2022/10/03 08:03:39;;;;;;;13.00;2.92;;;;;;;13.80;100.00;102858.38;5029508;28;20132;-64
2022/10/03 08:06:27;;;;;;;12.80;3.00;;;;;;;13.97;100.00;102866.06;4964955;28;20604;-63
2022/10/03 08:09:17;;;;;;;10.97;3.17;;;;;;;14.06;100.00;102872.97;4967996;28;20105;-65
2022/10/03 08:12:10;;;;;;;11.13;3.03;;;;;;;14.21;100.00;102873.66;5031999;28;20484;-62
2022/10/03 08:14:56;;;;;;;14.23;2.72;;;;;;;14.34;100.00;102866.34;5055189;28;20064;-64
2022/10/03 08:17:45;;;;;;;16.98;3.53;;;;;;;14.52;100.00;102875.75;5064422;28;20028;-62
2022/10/03 08:20:17;;;;;;;18.73;3.72;;;;;;;14.60;100.00;102868.53;5064553;28;20021;-66
2022/10/03 08:22:52;;;;;;;15.48;3.58;;;;;;;14.76;100.00;102873.56;5062324;28;20174;-62
2022/10/03 08:25:37;;;;;;;12.95;2.95;;;;;;;14.85;100.00;102870.78;5059069;28;20025;-65
2022/10/03 08:28:37;;;;;;;8.90;3.42;;;;;;;14.81;100.00;102874.38;5054677;28;20422;-64
2022/10/03 08:31:23;;;;;;;15.85;3.45;;;;;;;14.93;100.00;102880.34;5053999;28;20741;-62
2022/10/03 08:34:10;;;;;;;14.18;2.80;;;;;;;14.97;100.00;102877.63;5049000;28;20033;-63
2022/10/03 08:37:16;;;;;;;15.40;3.20;;;;;;;15.17;100.00;102878.97;5048764;28;20032;-63
2022/10/03 08:39:54;;;;;;;9.48;2.80;;;;;;;15.27;100.00;102882.31;5013096;28;20043;-62
2022/10/03 08:42:41;;;;;;;15.75;3.13;;;;;;;15.32;100.00;102877.78;5067718;28;20390;-63
2022/10/03 08:45:31;;;;;;;8.80;3.00;;;;;;;15.49;100.00;102882.72;5065949;28;20032;-63
2022/10/03 08:48:16;;;;;;;10.82;2.90;;;;;;;15.49;100.00;102881.84;5068269;28;20799;-64
2022/10/03 08:51:04;;;;;;;11.73;3.20;;;;;;;15.52;100.00;102874.69;5067760;28;20033;-62
2022/10/03 08:53:46;;;;;;;10.60;3.10;;;;;;;15.58;99.28;102876.34;5066753;28;20364;-62
2022/10/03 08:56:39;;;;;;;12.77;2.78;;;;;;;15.63;97.81;102877.09;5067599;28;20025;-64
2022/10/03 08:59:41;;;;;;;12.10;2.90;;;;;;;15.66;98.77;102882.34;5066897;28;20051;-63
2022/10/03 09:02:31;;;;;;;7.35;2.90;;;;;;;15.76;98.96;102872.38;5067814;28;20025;-62
2022/10/03 09:05:15;;;;;;;11.35;3.15;;;;;;;15.77;97.15;102871.47;5068035;28;20031;-63
2022/10/03 09:08:14;;;;;;;10.52;2.63;;;;;;;15.84;98.43;102874.88;5010844;28;1102551;-62
2022/10/03 09:11:01;;;;;;;8.20;2.92;;;;;;;15.94;96.08;102869.31;5047545;28;20052;-63
2022/10/03 09:14:04;;;;;;;13.73;3.20;;;;;;;16.02;96.72;102872.69;5046943;28;20037;-61
2022/10/03 09:16:41;;;;;;;17.02;3.17;;;;;;;16.24;96.12;102872.16;5066354;28;20036;-63
2022/10/03 09:19:24;;;;;;;10.57;3.67;;;;;;;16.51;95.36;102873.22;5068312;28;20021;-63
2022/10/03 09:22:08;;;;;;;11.10;2.80;;;;;;;16.65;94.35;102870.19;5068734;28;20043;-62
2022/10/03 09:24:53;;;;;;;18.10;3.00;;;;;;;16.84;93.04;102867.03;5068364;28;20050;-62
2022/10/03 09:27:41;;;;;;;15.65;3.33;;;;;;;16.83;92.65;102870.63;5066745;28;20028;-63
2022/10/03 09:30:22;;;;;;;12.57;2.97;;;;;;;17.08;90.84;102867.28;5068360;28;20049;-61
2022/10/03 09:32:54;;;;;;;9.30;2.83;;;;;;;17.13;91.68;102856.47;5066298;28;20043;-63
2022/10/03 09:35:47;;;;;;;13.30;2.58;;;;;;;17.06;91.62;102861.06;5066229;28;20436;-63
2022/10/03 09:38:43;;;;;;;11.13;3.10;;;;;;;17.30;91.81;102867.50;5068059;28;20070;-62
2022/10/03 09:41:33;;;;;;;16.80;2.63;;;;;;;17.40;87.69;102864.56;5053650;28;20112;-62
2022/10/03 09:44:26;;;;;;;10.05;2.45;;;;;;;17.36;89.94;102865.56;5050852;28;20127;-62
2022/10/03 09:47:22;;;;;;;9.90;2.33;;;;;;;17.51;86.78;102872.22;5061277;28;20051;-62
2022/10/03 09:50:21;;;;;;;10.63;2.33;;;;;;;17.69;85.87;102860.09;5068416;28;20081;-64
2022/10/03 09:53:05;;;;;;;9.82;2.25;;;;;;;17.51;86.28;102859.75;5065262;28;20016;-64
2022/10/03 09:56:00;;;;;;;10.15;2.17;;;;;;;17.53;86.46;102862.38;5062867;28;20032;-64
2022/10/03 09:59:04;;;;;;;11.18;2.17;;;;;;;17.67;84.98;102867.28;5063534;28;20552;-62
2022/10/03 10:01:29;;;;;;;7.80;2.08;;;;;;;17.63;85.54;102860.28;5057473;28;20433;-63
2022/10/03 10:04:28;;;;;;;7.32;2.20;;;;;;;17.63;85.78;102866.50;5056918;28;20116;-61
2022/10/03 10:07:37;;;;;;;10.88;2.05;;;;;;;17.56;86.54;102867.63;5056796;28;20442;-64
2022/10/03 10:10:24;;;;;;;7.82;1.80;;;;;;;17.52;86.19;102866.81;5067444;28;20119;-64
2022/10/03 10:13:26;;;;;;;9.60;2.03;;;;;;;17.30;86.54;102859.50;5058097;28;20037;-61
2022/10/03 10:16:15;;;;;;;8.48;2.05;;;;;;;17.30;87.77;102862.16;5065113;28;20487;-63
2022/10/03 10:18:49;;;;;;;;;;;;;;;17.11;89.29;102866.28;5056213;28;20343;-63
2022/10/03 10:21:52;;;;;;;12.85;2.30;;;;;;;17.15;89.64;102860.84;5066019;28;20358;-62
2022/10/03 10:24:48;;;;;;;10.70;2.38;;;;;;;17.04;89.21;102853.13;5066685;28;20118;-65
2022/10/03 10:27:51;;;;;;;8.98;2.13;;;;;;;16.92;89.16;102865.00;5081716;28;20040;-61
2022/10/03 10:30:21;;;;;;;16.42;2.53;;;;;;;16.87;89.61;102858.94;5047359;28;20044;-63
2022/10/03 10:33:20;;;;;;;8.95;2.22;;;;;;;16.76;90.95;102864.56;5067540;28;20788;-63
2022/10/03 10:36:16;;;;;;;12.68;2.70;;;;;;;16.76;91.52;102867.22;5063333;28;20025;-62
2022/10/03 10:38:42;;;;;;;16.77;2.53;;;;;;;16.73;91.97;102859.31;5058296;28;20020;-62
2022/10/03 10:41:29;;;;;;;17.33;2.78;;;;;;;16.74;93.03;102870.84;5057448;28;20084;-64
2022/10/03 10:44:36;;;;;;;11.27;2.50;;;;;;;16.82;92.76;102852.88;5057989;28;20025;-63
2022/10/03 10:47:17;;;;;;;14.70;2.80;;;;;;;16.96;92.65;102852.50;5051148;28;20032;-62
2022/10/03 10:50:09;;;;;;;16.92;2.45;;;;;;;17.11;91.89;102848.53;5066667;28;20024;-63
2022/10/03 10:53:07;;;;;;;11.95;2.63;;;;;;;17.27;92.21;102848.06;5053060;28;20036;-63
2022/10/03 10:56:04;;;;;;;16.17;3.15;;;;;;;17.46;90.79;102858.16;5057988;28;20024;-62
2022/10/03 10:58:29;;;;;;;14.32;2.65;;;;;;;17.42;91.14;102855.59;5062036;28;20406;-62
2022/10/03 11:01:22;;;;;;;9.40;2.42;;;;;;;17.43;91.32;102861.81;5057472;28;20112;-62
2022/10/03 11:04:25;;;;;;;12.80;2.80;;;;;;;17.35;90.97;102859.38;5055058;28;20135;-63
2022/10/03 11:07:21;;;;;;;10.80;2.78;;;;;;;17.36;90.54;102853.13;5051933;28;20045;-64
2022/10/03 11:10:10;;;;;;;11.48;2.85;;;;;;;17.37;91.16;102862.00;5060493;28;20029;-63
2022/10/03 11:13:11;;;;;;;16.40;3.35;;;;;;;17.31;91.69;102860.41;5065415;28;20548;-62
2022/10/03 11:15:43;;;;;;;12.13;2.80;;;;;;;17.25;90.66;102852.59;5066129;28;20032;-64
2022/10/03 11:18:20;;;;;;;11.80;2.13;;;;;;;17.16;90.49;102857.25;5067814;28;20060;-63
2022/10/03 11:20:57;;;;;;;9.35;2.72;;;;;;;17.02;90.75;102854.09;5068407;28;20093;-63
2022/10/03 11:23:40;;;;;;;10.73;2.17;;;;;;;16.87;91.38;102861.63;5061927;28;20025;-64
2022/10/03 11:26:43;;;;;;;8.82;2.47;;;;;;;16.82;91.44;102860.84;5066840;28;20032;-64
2022/10/03 11:29:21;;;;;;;14.35;2.40;;;;;;;16.82;91.57;102855.53;5067586;28;20040;-64
2022/10/03 11:32:24;;;;;;;9.32;2.30;;;;;;;16.81;90.93;102856.47;5067000;28;20029;-63
2022/10/03 11:35:10;;;;;;;8.25;2.10;;;;;;;16.82;90.97;102852.88;5067355;28;20028;-63
2022/10/03 11:37:40;;;;;;;12.15;2.47;;;;;;;16.87;90.33;102850.97;5066630;28;20029;-64
2022/10/03 11:40:15;;;;;;;12.60;2.60;;;;;;;16.82;89.77;102847.53;5067637;28;20059;-65
2022/10/03 11:42:56;;;;;;;8.93;2.08;;;;;;;16.89;89.97;102846.44;5066436;28;20518;-64
2022/10/03 11:45:24;;;;;;;10.77;2.13;;;;;;;16.92;89.80;102838.38;5067289;28;20032;-66
2022/10/03 11:48:05;;;;;;;12.15;2.22;;;;;;;16.89;88.56;102848.25;5067773;28;20020;-64
2022/10/03 11:50:37;;;;;;;11.60;2.65;;;;;;;16.90;88.11;102842.91;5063316;28;20341;-64
2022/10/03 11:53:17;;;;;;;8.02;2.00;;;;;;;16.78;87.66;102846.78;5067232;28;20039;-66
2022/10/03 11:56:04;;;;;;;12.27;2.80;;;;;;;16.82;87.35;102852.03;5067150;28;20089;-65
2022/10/03 11:58:52;;;;;;;7.35;2.00;;;;;;;16.74;88.22;102844.25;5064856;28;20431;-64
2022/10/03 12:01:23;;;;;;;6.15;1.70;;;;;;;16.68;88.96;102856.78;5065522;28;20371;-64
2022/10/03 12:04:14;;;;;;;8.05;1.75;;;;;;;16.62;87.32;102856.94;5067977;28;20025;-66
2022/10/03 12:09:37;;;;;;;12.60;2.55;;;;;;;16.36;86.87;102839.94;5070042;28;20055;-65
2022/10/03 12:12:14;;;;;;;9.05;2.10;;;;;;;16.31;87.22;102840.97;5070640;28;20086;-66
2022/10/03 12:14:45;;;;;;;9.05;2.05;;;;;;;16.26;87.43;102838.41;5070186;28;20036;-66
2022/10/03 12:17:31;;;;;;;11.95;2.58;;;;;;;16.16;87.68;102841.31;5069078;28;20385;-65
2022/10/03 12:20:15;;;;;;;11.43;1.98;;;;;;;16.11;87.66;102845.91;5069329;28;20085;-65
2022/10/03 12:22:48;;;;;;;5.35;1.63;;;;;;;16.01;87.37;102839.03;5069244;28;20071;-66
2022/10/03 12:25:20;;;;;;;10.05;1.90;;;;;;;15.94;87.57;102840.94;5070020;28;20453;-67
2022/10/03 12:27:48;;;;;;;10.25;2.13;;;;;;;15.90;88.05;102837.47;5069686;28;20032;-66
2022/10/03 12:30:15;;;;;;;10.23;2.08;;;;;;;15.90;88.02;102844.59;5068424;28;20143;-66
2022/10/03 12:32:58;;;;;;;9.18;2.22;;;;;;;15.85;88.77;102833.19;5068662;28;20029;-65
2022/10/03 12:35:49;;;;;;;11.82;2.22;;;;;;;15.79;89.05;102834.22;5070526;28;20386;-66
2022/10/03 12:38:52;;;;;;;14.50;2.70;;;;;;;15.77;90.09;102820.06;5070076;28;20033;-64
2022/10/03 12:41:41;;;;;;;9.30;2.30;;;;;;;15.75;92.20;102827.25;5070934;28;20013;-66
2022/10/03 12:44:30;;;;;;;13.73;2.85;;;;;;;15.80;92.74;102822.66;5069974;28;20059;-65
2022/10/03 12:47:26;;;;;;;11.57;2.30;;;;;;;15.83;92.70;102825.25;5040297;28;20040;-66
2022/10/03 12:50:03;;;;;;;11.63;2.67;;;;;;;15.85;92.60;102818.13;5051197;28;20089;-65
2022/10/03 12:52:53;;;;;;;10.57;2.90;;;;;;;15.84;93.47;102815.50;5068293;28;20020;-64